Time;durP1;ratioP1;P1;durP2;ratioP2;P2;SDS_P1;SDS_P2;PMS_P1;PMS_P2;Temp;Humidity;BMP_temperature;BMP_pressure;BME280_temperature;BME280_humidity;BME280_pressure;Samples;Min_cycle;Max_cycle;Signal;HPM_P1;HPM_P2
2023/01/08 00:01:18;;;;;;;9.38;2.45;;;7.10;99.90;;;;;;4990254;28;20035;-64
2023/01/08 00:03:46;;;;;;;14.60;1.60;;;7.10;99.90;;;;;;4989654;28;20046;-63
2023/01/08 00:06:17;;;;;;;13.10;1.55;;;7.10;99.90;;;;;;4987631;28;20050;-59
2023/01/08 00:08:45;;;;;;;15.13;2.00;;;7.10;99.90;;;;;;4993606;28;20046;-63
2023/01/08 00:11:13;;;;;;;14.80;2.22;;;7.10;99.90;;;;;;4991911;28;20066;-59
2023/01/08 00:13:41;;;;;;;11.60;1.63;;;7.10;99.90;;;;;;4996811;28;20509;-57
2023/01/08 00:16:11;;;;;;;11.48;2.00;;;7.10;99.90;;;;;;4998322;28;20053;-60
2023/01/08 00:18:40;;;;;;;12.40;2.15;;;7.10;99.90;;;;;;4987489;28;20051;-60
2023/01/08 00:21:08;;;;;;;12.75;1.58;;;7.10;99.90;;;;;;4989016;28;20042;-60
2023/01/08 00:23:36;;;;;;;15.20;1.40;;;7.10;99.90;;;;;;4987914;28;20053;-59
2023/01/08 00:26:06;;;;;;;21.95;2.55;;;7.10;99.90;;;;;;4995776;28;20046;-59
2023/01/08 00:28:34;;;;;;;15.30;2.13;;;7.10;99.90;;;;;;4999158;28;20533;-63
2023/01/08 00:31:07;;;;;;;16.13;1.77;;;7.00;99.90;;;;;;4997086;28;20046;-59
2023/01/08 00:33:35;;;;;;;21.85;3.58;;;7.00;99.90;;;;;;4987339;28;20490;-58
2023/01/08 00:36:11;;;;;;;17.20;1.95;;;7.00;99.90;;;;;;4990100;28;20058;-59
2023/01/08 00:38:39;;;;;;;20.60;2.63;;;7.00;99.90;;;;;;5002313;28;20497;-60
2023/01/08 00:41:07;;;;;;;12.93;1.85;;;7.00;99.90;;;;;;5009543;28;20042;-58
2023/01/08 00:43:34;;;;;;;15.27;2.50;;;7.00;99.90;;;;;;4997142;28;20050;-59
2023/01/08 00:46:03;;;;;;;12.07;2.13;;;7.00;99.90;;;;;;5000458;28;20034;-59
2023/01/08 00:48:32;;;;;;;15.88;1.75;;;7.10;99.90;;;;;;4986532;28;20058;-59
2023/01/08 00:51:02;;;;;;;11.63;1.65;;;7.10;99.90;;;;;;4986846;28;20038;-60
2023/01/08 00:53:29;;;;;;;13.63;1.92;;;7.10;99.90;;;;;;4988693;28;20074;-59
2023/01/08 00:56:02;;;;;;;14.05;2.40;;;7.20;99.90;;;;;;4991632;28;20401;-61
2023/01/08 00:58:29;;;;;;;9.68;2.42;;;7.20;99.90;;;;;;5001475;28;20405;-61
2023/01/08 01:00:57;;;;;;;11.93;1.70;;;7.20;99.90;;;;;;4992120;28;20061;-58
2023/01/08 01:03:26;;;;;;;19.58;2.35;;;7.20;99.90;;;;;;4989118;28;20042;-59
2023/01/08 01:06:04;;;;;;;15.90;3.00;;;7.20;99.90;;;;;;4987137;28;20061;-59
2023/01/08 01:08:32;;;;;;;11.73;1.95;;;7.20;99.90;;;;;;5000030;28;20050;-58
2023/01/08 01:11:06;;;;;;;17.95;2.35;;;7.20;99.90;;;;;;4998046;28;20058;-60
2023/01/08 01:13:33;;;;;;;14.52;2.53;;;7.20;99.90;;;;;;4993655;28;20046;-59
2023/01/08 01:16:02;;;;;;;25.95;2.65;;;7.10;99.90;;;;;;4983253;28;20051;-59
2023/01/08 01:18:30;;;;;;;10.73;1.75;;;7.10;99.90;;;;;;4996581;28;20046;-60
2023/01/08 01:20:58;;;;;;;19.85;3.15;;;7.10;99.90;;;;;;4988645;28;20042;-59
2023/01/08 01:23:25;;;;;;;21.50;2.60;;;7.00;99.90;;;;;;5023061;28;20050;-61
2023/01/08 01:25:53;;;;;;;17.15;3.15;;;6.90;99.90;;;;;;4984841;28;20422;-59
2023/01/08 01:28:21;;;;;;;13.75;1.90;;;6.90;99.90;;;;;;4995166;28;20042;-63
2023/01/08 01:30:55;;;;;;;9.77;1.92;;;6.80;99.90;;;;;;4990177;28;20057;-63
2023/01/08 01:33:23;;;;;;;21.33;2.80;;;6.80;99.90;;;;;;5027516;28;20551;-59
2023/01/08 01:36:01;;;;;;;17.05;2.78;;;6.80;99.90;;;;;;5027460;28;20062;-57
2023/01/08 01:38:29;;;;;;;17.23;2.08;;;6.80;99.90;;;;;;4994849;28;20048;-57
2023/01/08 01:40:57;;;;;;;18.60;2.38;;;6.90;99.90;;;;;;5008265;28;20053;-61
2023/01/08 01:43:42;;;;;;;23.65;2.78;;;6.90;99.90;;;;;;4995484;28;20046;-63
2023/01/08 01:46:20;;;;;;;12.13;2.00;;;6.90;99.90;;;;;;4989822;28;20038;-59
2023/01/08 01:48:52;;;;;;;17.05;2.22;;;7.00;99.90;;;;;;4994057;28;20042;-59
2023/01/08 01:51:20;;;;;;;9.50;1.95;;;7.00;99.90;;;;;;4999075;28;20662;-61
2023/01/08 01:53:48;;;;;;;12.63;1.70;;;7.00;99.90;;;;;;4988238;28;20069;-59
2023/01/08 01:56:16;;;;;;;11.13;2.15;;;7.00;99.90;;;;;;4985539;28;20387;-59
2023/01/08 01:58:44;;;;;;;17.92;2.20;;;7.00;99.90;;;;;;4980625;28;20050;-60
2023/01/08 02:01:11;;;;;;;6.80;1.60;;;7.00;99.90;;;;;;4987796;28;20482;-61
2023/01/08 02:03:39;;;;;;;5.82;1.25;;;7.10;99.90;;;;;;4989661;28;20479;-60
2023/01/08 02:06:33;;;;;;;15.32;1.95;;;7.10;99.90;;;;;;4991706;28;20073;-64
2023/01/08 02:09:19;;;;;;;10.05;1.58;;;7.20;99.90;;;;;;4984797;28;20051;-59
2023/01/08 02:12:15;;;;;;;16.95;1.88;;;7.20;99.90;;;;;;4994272;28;20054;-60
2023/01/08 02:14:56;;;;;;;13.27;1.65;;;7.20;99.90;;;;;;4987789;28;20434;-58
2023/01/08 02:17:31;;;;;;;10.82;2.28;;;7.30;99.90;;;;;;4988359;28;20061;-62
2023/01/08 02:20:07;;;;;;;16.83;3.38;;;7.30;99.90;;;;;;4987929;28;20046;-60
2023/01/08 02:22:59;;;;;;;12.13;2.17;;;7.30;99.90;;;;;;4987624;28;20050;-60
2023/01/08 02:25:41;;;;;;;9.63;1.80;;;7.10;99.90;;;;;;4987885;28;20054;-61
2023/01/08 02:28:12;;;;;;;12.80;1.65;;;7.30;99.90;;;;;;4993008;28;20359;-61
2023/01/08 02:30:40;;;;;;;12.98;1.60;;;7.30;99.90;;;;;;4985597;28;20061;-62
2023/01/08 02:33:08;;;;;;;15.35;2.63;;;7.30;99.90;;;;;;4991355;28;20049;-59
2023/01/08 02:35:43;;;;;;;14.63;1.80;;;7.30;99.90;;;;;;4992091;28;20050;-62
2023/01/08 02:38:14;;;;;;;9.25;0.77;;;7.30;99.90;;;;;;4992686;28;20403;-62
2023/01/08 02:40:55;;;;;;;9.35;2.05;;;7.20;99.90;;;;;;5012914;28;20054;-63
2023/01/08 02:43:33;;;;;;;10.75;1.35;;;7.20;99.90;;;;;;4990446;28;20046;-60
2023/01/08 02:46:02;;;;;;;9.55;1.05;;;7.20;99.90;;;;;;5008054;28;20061;-62
2023/01/08 02:48:56;;;;;;;9.32;0.93;;;7.10;99.90;;;;;;4993835;28;20050;-59
2023/01/08 02:51:38;;;;;;;10.05;1.58;;;7.10;99.90;;;;;;4993442;28;20046;-59
2023/01/08 02:54:11;;;;;;;7.45;1.65;;;7.10;99.90;;;;;;4987852;28;20057;-59
2023/01/08 02:56:46;;;;;;;12.95;2.13;;;7.00;99.90;;;;;;4992116;28;20038;-59
2023/01/08 02:59:15;;;;;;;14.73;1.65;;;7.00;99.90;;;;;;4992263;28;20505;-60
2023/01/08 03:01:43;;;;;;;9.85;1.52;;;7.00;99.90;;;;;;5008739;28;20038;-66
2023/01/08 03:04:16;;;;;;;11.30;1.73;;;7.00;99.90;;;;;;4994605;28;20509;-64
2023/01/08 03:06:45;;;;;;;11.43;1.30;;;7.00;99.90;;;;;;4993440;28;20058;-62
2023/01/08 03:09:14;;;;;;;12.02;2.10;;;7.00;99.90;;;;;;4993868;28;20065;-61
2023/01/08 03:11:56;;;;;;;12.88;1.83;;;7.00;99.90;;;;;;4991805;28;20046;-64
2023/01/08 03:14:30;;;;;;;10.30;1.45;;;6.90;99.90;;;;;;4989646;28;20054;-63
2023/01/08 03:17:04;;;;;;;10.35;2.17;;;6.90;99.90;;;;;;4980818;28;20050;-64
2023/01/08 03:19:39;;;;;;;10.30;1.20;;;6.80;99.90;;;;;;4992647;28;20057;-59
2023/01/08 03:22:11;;;;;;;7.28;1.20;;;6.80;99.90;;;;;;4992478;28;20524;-65
2023/01/08 03:24:41;;;;;;;5.93;1.00;;;6.80;99.90;;;;;;4987998;28;20065;-64
2023/01/08 03:27:15;;;;;;;13.57;1.10;;;6.80;99.90;;;;;;4992887;28;20414;-62
2023/01/08 03:29:45;;;;;;;8.57;0.95;;;6.70;99.90;;;;;;4992311;28;20051;-63
2023/01/08 03:32:15;;;;;;;12.98;1.00;;;6.70;99.90;;;;;;4990686;28;20043;-59
2023/01/08 03:34:47;;;;;;;7.57;0.88;;;6.70;99.90;;;;;;4989919;28;20054;-59
2023/01/08 03:37:20;;;;;;;8.18;1.25;;;6.50;99.90;;;;;;4992219;28;20042;-63
2023/01/08 03:39:54;;;;;;;8.02;1.15;;;6.60;99.90;;;;;;4990978;28;20046;-62
2023/01/08 03:42:23;;;;;;;8.57;0.90;;;6.50;99.90;;;;;;4992699;28;20042;-62
2023/01/08 03:44:51;;;;;;;11.68;1.15;;;6.50;99.90;;;;;;4994089;28;20050;-59
2023/01/08 03:47:21;;;;;;;9.15;1.30;;;6.40;99.90;;;;;;4992742;28;20053;-60
2023/01/08 03:49:51;;;;;;;13.60;1.50;;;6.40;99.90;;;;;;4992525;28;20046;-64
2023/01/08 03:52:28;;;;;;;9.70;1.58;;;6.40;99.90;;;;;;4991798;28;20046;-64
2023/01/08 03:54:56;;;;;;;6.75;1.13;;;6.40;99.90;;;;;;4993102;28;20046;-59
2023/01/08 03:57:23;;;;;;;10.23;0.88;;;6.40;99.90;;;;;;4993654;28;20046;-62
2023/01/08 03:59:51;;;;;;;8.60;1.08;;;6.40;99.90;;;;;;4991106;28;20494;-63
2023/01/08 04:02:19;;;;;;;9.98;1.40;;;6.30;99.90;;;;;;4992165;28;20054;-64
2023/01/08 04:04:47;;;;;;;9.10;1.30;;;6.30;99.90;;;;;;4991728;28;20047;-63
2023/01/08 04:07:15;;;;;;;7.22;1.25;;;6.30;99.90;;;;;;4992657;28;20050;-65
2023/01/08 04:09:42;;;;;;;8.85;1.17;;;6.30;99.90;;;;;;4992172;28;20042;-65
2023/01/08 04:12:10;;;;;;;5.07;0.90;;;6.30;99.90;;;;;;4993306;28;20049;-65
2023/01/08 04:14:37;;;;;;;12.77;2.03;;;6.30;99.90;;;;;;4993235;28;20050;-65
2023/01/08 04:17:05;;;;;;;7.63;1.30;;;6.40;99.90;;;;;;4985865;28;20050;-65
2023/01/08 04:19:33;;;;;;;12.80;1.98;;;6.30;99.90;;;;;;4992888;28;20054;-65
2023/01/08 04:22:00;;;;;;;9.68;2.05;;;6.30;99.90;;;;;;4992461;28;20049;-66
2023/01/08 04:24:28;;;;;;;3.80;0.88;;;6.30;99.90;;;;;;4992717;28;20051;-66
2023/01/08 04:26:55;;;;;;;13.77;1.15;;;6.30;99.90;;;;;;4982775;28;20034;-66
2023/01/08 04:29:23;;;;;;;8.13;1.08;;;6.20;99.90;;;;;;4992057;28;20506;-65
2023/01/08 04:31:51;;;;;;;17.27;1.23;;;;;;;;;;5024280;28;20046;-66
2023/01/08 04:34:18;;;;;;;11.32;1.95;;;6.20;99.90;;;;;;4991718;28;20042;-65
2023/01/08 04:36:46;;;;;;;10.65;0.63;;;6.10;99.90;;;;;;4992170;28;20478;-65
2023/01/08 04:39:14;;;;;;;4.78;0.75;;;6.10;99.90;;;;;;4991779;28;20034;-66
2023/01/08 04:41:41;;;;;;;5.43;0.82;;;6.10;99.90;;;;;;4992327;28;20126;-61
2023/01/08 04:44:09;;;;;;;3.22;0.60;;;6.10;99.90;;;;;;4992615;28;20050;-62
2023/01/08 04:46:36;;;;;;;6.22;0.82;;;6.10;99.90;;;;;;4991920;28;20422;-64
2023/01/08 04:49:04;;;;;;;6.65;1.48;;;6.10;99.90;;;;;;4982975;28;20049;-61
2023/01/08 04:51:31;;;;;;;6.97;0.63;;;6.10;99.90;;;;;;4989715;28;20059;-61
2023/01/08 04:53:59;;;;;;;4.00;0.55;;;6.20;99.90;;;;;;4988737;28;20039;-60
2023/01/08 04:56:27;;;;;;;8.65;0.73;;;6.20;99.90;;;;;;4990464;28;20093;-64
2023/01/08 04:58:54;;;;;;;3.78;0.90;;;6.20;99.90;;;;;;4991587;28;20405;-60
2023/01/08 05:01:24;;;;;;;2.22;0.70;;;6.20;99.90;;;;;;4992317;28;20054;-61
2023/01/08 05:04:03;;;;;;;7.40;0.55;;;6.20;99.90;;;;;;4990650;28;20379;-61
2023/01/08 05:06:32;;;;;;;4.78;0.70;;;7.30;99.90;;;;;;4992171;28;20050;-62
2023/01/08 05:08:59;;;;;;;4.35;0.82;;;6.30;99.90;;;;;;4988875;28;20057;-60
2023/01/08 05:11:27;;;;;;;4.65;0.40;;;6.30;99.90;;;;;;4990293;28;20047;-61
2023/01/08 05:13:55;;;;;;;1.17;0.45;;;6.30;99.90;;;;;;4992219;28;20050;-63
2023/01/08 05:16:23;;;;;;;5.03;0.60;;;6.30;99.90;;;;;;4980956;28;20039;-60
2023/01/08 05:18:50;;;;;;;5.38;0.80;;;6.40;99.90;;;;;;4991295;28;20053;-61
2023/01/08 05:21:18;;;;;;;2.13;0.22;;;6.40;99.90;;;;;;4991432;28;20372;-61
2023/01/08 05:23:46;;;;;;;0.85;0.25;;;6.40;99.90;;;;;;4992172;28;20053;-60
2023/01/08 05:26:15;;;;;;;1.88;0.35;;;6.30;99.90;;;;;;4992160;28;20057;-62
2023/01/08 05:28:43;;;;;;;0.57;0.10;;;6.20;99.90;;;;;;4972600;28;20046;-60
2023/01/08 05:31:11;;;;;;;0.15;0.10;;;6.10;99.90;;;;;;4988839;28;20046;-61
2023/01/08 05:33:39;;;;;;;1.23;0.22;;;5.80;99.90;;;;;;4990451;28;20058;-60
2023/01/08 05:36:08;;;;;;;2.13;0.10;;;5.80;99.90;;;;;;4989606;28;20046;-60
2023/01/08 05:38:36;;;;;;;0.52;0.20;;;5.70;99.90;;;;;;4991692;28;20050;-63
2023/01/08 05:41:05;;;;;;;0.20;0.10;;;5.70;99.90;;;;;;4990096;28;20394;-64
2023/01/08 05:43:33;;;;;;;1.45;0.17;;;5.60;99.90;;;;;;4997266;28;20050;-60
2023/01/08 05:46:02;;;;;;;0.00;0.00;;;5.50;99.90;;;;;;4988109;28;20050;-61
2023/01/08 05:48:32;;;;;;;0.45;0.00;;;5.50;99.90;;;;;;4982404;28;20046;-63
2023/01/08 05:51:00;;;;;;;0.57;0.38;;;5.40;99.90;;;;;;4987886;28;20049;-63
2023/01/08 05:53:30;;;;;;;1.80;0.10;;;5.40;99.90;;;;;;4984693;28;20541;-67
2023/01/08 05:56:07;;;;;;;0.17;0.10;;;5.40;99.90;;;;;;4984389;28;20047;-65
2023/01/08 05:58:36;;;;;;;0.22;0.05;;;5.40;99.90;;;;;;4987883;28;20053;-61
2023/01/08 06:01:14;;;;;;;0.17;0.10;;;5.40;99.90;;;;;;4986952;28;20050;-60
2023/01/08 06:03:42;;;;;;;2.45;0.10;;;5.40;99.90;;;;;;4982226;28;20063;-60
2023/01/08 06:06:11;;;;;;;0.13;0.03;;;5.40;99.90;;;;;;5015962;28;20050;-60
2023/01/08 06:08:38;;;;;;;1.30;0.10;;;5.40;99.90;;;;;;5004290;28;20038;-61
2023/01/08 06:11:07;;;;;;;2.65;0.38;;;5.50;99.90;;;;;;5006352;28;20046;-60
2023/01/08 06:13:36;;;;;;;0.28;0.10;;;5.50;99.90;;;;;;4999555;28;20405;-59
2023/01/08 06:16:04;;;;;;;0.35;0.10;;;5.50;99.90;;;;;;4990994;28;20050;-61
2023/01/08 06:18:32;;;;;;;0.30;0.03;;;5.50;99.90;;;;;;4987887;28;20054;-60
2023/01/08 06:21:04;;;;;;;1.85;0.00;;;5.50;99.90;;;;;;4989319;28;20042;-61
2023/01/08 06:23:32;;;;;;;0.73;0.10;;;5.50;99.90;;;;;;4989745;28;20050;-60
2023/01/08 06:26:02;;;;;;;0.20;0.10;;;5.50;99.90;;;;;;4988746;28;20051;-60
2023/01/08 06:28:31;;;;;;;0.88;0.28;;;5.40;99.90;;;;;;4987644;28;20051;-61
2023/01/08 06:31:02;;;;;;;1.80;0.50;;;5.40;99.90;;;;;;4990735;28;20725;-61
2023/01/08 06:33:30;;;;;;;4.32;1.00;;;5.40;99.90;;;;;;4990722;28;20046;-60
2023/01/08 06:36:03;;;;;;;2.28;0.80;;;5.50;99.90;;;;;;4989628;28;20062;-61
2023/01/08 06:38:33;;;;;;;0.75;0.30;;;5.40;99.90;;;;;;4994879;28;20053;-60
2023/01/08 06:41:05;;;;;;;;;;;5.70;99.90;;;;;;4990745;28;20042;-60
2023/01/08 06:43:33;;;;;;;2.30;0.40;;;5.40;99.90;;;;;;4994031;28;20293;-60
2023/01/08 06:46:05;;;;;;;0.00;0.00;;;5.40;99.90;;;;;;4997073;28;20049;-61
2023/01/08 06:48:32;;;;;;;;;;;5.40;99.90;;;;;;4987407;28;20383;-60
2023/01/08 06:51:01;;;;;;;1.20;0.32;;;5.30;99.90;;;;;;4991725;28;20504;-59
2023/01/08 06:53:29;;;;;;;0.20;0.15;;;5.40;99.90;;;;;;5023447;28;20046;-60
2023/01/08 06:55:57;;;;;;;3.45;0.50;;;5.40;99.90;;;;;;4991718;28;20057;-60
2023/01/08 06:58:26;;;;;;;0.30;0.10;;;5.30;99.90;;;;;;4990547;28;20426;-60
2023/01/08 07:00:54;;;;;;;1.70;0.25;;;5.30;99.90;;;;;;5006303;28;20061;-60
2023/01/08 07:03:22;;;;;;;0.57;0.20;;;5.30;99.90;;;;;;4989347;28;20046;-61
2023/01/08 07:05:50;;;;;;;0.45;0.25;;;5.30;99.90;;;;;;4989589;28;20043;-61
2023/01/08 07:08:17;;;;;;;1.42;0.28;;;5.30;99.90;;;;;;4990600;28;20050;-61
2023/01/08 07:10:45;;;;;;;1.27;0.35;;;5.30;99.90;;;;;;4990248;28;20065;-60
2023/01/08 07:13:13;;;;;;;2.00;0.32;;;5.40;99.90;;;;;;5000352;28;20053;-59
2023/01/08 07:15:41;;;;;;;1.10;0.20;;;5.40;99.90;;;;;;4992037;28;20038;-59
2023/01/08 07:18:10;;;;;;;2.30;0.40;;;5.40;99.90;;;;;;5004302;28;20042;-60
2023/01/08 07:20:38;;;;;;;1.60;0.22;;;5.40;99.90;;;;;;4991819;28;20062;-60
2023/01/08 07:23:09;;;;;;;1.38;0.70;;;5.40;99.90;;;;;;4992156;28;20042;-61
2023/01/08 07:25:37;;;;;;;1.13;0.40;;;5.30;99.90;;;;;;4990266;28;20062;-60
2023/01/08 07:28:05;;;;;;;1.95;0.50;;;5.30;99.90;;;;;;4989081;28;20038;-61
2023/01/08 07:30:33;;;;;;;2.42;0.40;;;5.30;99.90;;;;;;4988134;28;20050;-60
2023/01/08 07:33:00;;;;;;;3.22;0.50;;;5.30;99.90;;;;;;4992410;28;20059;-60
2023/01/08 07:35:29;;;;;;;3.45;0.30;;;5.20;99.90;;;;;;4974731;28;20402;-60
2023/01/08 07:37:56;;;;;;;2.33;0.40;;;5.20;99.90;;;;;;4989008;28;20050;-59
2023/01/08 07:40:24;;;;;;;1.85;0.22;;;5.10;99.90;;;;;;4986773;28;20405;-59
2023/01/08 07:43:02;;;;;;;2.67;0.40;;;5.10;99.90;;;;;;4986748;28;20050;-60
2023/01/08 07:45:31;;;;;;;1.63;0.50;;;5.10;99.90;;;;;;4991140;28;20394;-60
2023/01/08 07:47:59;;;;;;;2.70;0.70;;;5.00;99.90;;;;;;4989032;28;20057;-60
2023/01/08 07:50:27;;;;;;;2.67;0.60;;;5.00;99.90;;;;;;4987104;28;20050;-59
2023/01/08 07:53:01;;;;;;;4.93;0.70;;;4.90;99.90;;;;;;4990496;28;20057;-61
2023/01/08 07:55:30;;;;;;;1.48;0.30;;;4.90;99.90;;;;;;4988791;28;20046;-60
2023/01/08 07:57:58;;;;;;;1.35;0.65;;;4.90;99.90;;;;;;4991380;28;21045;-61
2023/01/08 08:00:26;;;;;;;2.30;0.28;;;4.80;99.90;;;;;;4987275;28;20050;-61
2023/01/08 08:02:53;;;;;;;2.03;0.70;;;4.80;99.90;;;;;;4985221;28;20050;-60
2023/01/08 08:05:21;;;;;;;1.27;0.60;;;4.80;99.90;;;;;;4984799;28;20050;-61
2023/01/08 08:07:49;;;;;;;3.10;0.73;;;4.70;99.90;;;;;;4994967;28;20543;-62
2023/01/08 08:10:16;;;;;;;3.92;0.60;;;4.70;99.90;;;;;;5011497;28;20053;-61
2023/01/08 08:12:44;;;;;;;3.70;0.80;;;4.80;99.90;;;;;;4992278;28;20041;-61
2023/01/08 08:15:12;;;;;;;2.63;0.65;;;4.80;99.90;;;;;;4990988;28;20478;-64
2023/01/08 08:17:44;;;;;;;3.97;0.50;;;4.80;99.90;;;;;;4989260;28;20505;-59
2023/01/08 08:20:11;;;;;;;1.83;0.52;;;4.80;99.90;;;;;;4990713;28;20529;-62
2023/01/08 08:22:39;;;;;;;2.83;0.60;;;4.80;99.90;;;;;;4986145;28;20417;-59
2023/01/08 08:25:07;;;;;;;2.70;1.00;;;4.80;99.90;;;;;;4990537;28;20049;-60
2023/01/08 08:27:35;;;;;;;2.75;0.40;;;4.90;99.90;;;;;;4994813;28;20045;-62
2023/01/08 08:30:03;;;;;;;2.92;0.30;;;4.90;99.90;;;;;;5011070;28;20057;-60
2023/01/08 08:32:31;;;;;;;4.18;0.77;;;4.90;99.90;;;;;;4996288;28;20058;-59
2023/01/08 08:34:59;;;;;;;1.92;0.57;;;5.00;99.90;;;;;;4987567;28;20066;-66
2023/01/08 08:37:27;;;;;;;1.05;0.70;;;5.00;99.90;;;;;;4994281;28;20053;-65
2023/01/08 08:39:55;;;;;;;2.92;0.30;;;5.00;99.90;;;;;;5010731;28;20405;-66
2023/01/08 08:42:22;;;;;;;3.85;0.50;;;5.00;99.90;;;;;;4986697;28;20396;-62
2023/01/08 08:44:50;;;;;;;4.35;0.60;;;5.00;99.90;;;;;;4988273;28;20050;-64
2023/01/08 08:47:18;;;;;;;4.68;0.55;;;5.00;99.90;;;;;;4981051;28;20350;-64
2023/01/08 08:49:46;;;;;;;2.88;0.55;;;5.00;99.90;;;;;;4986933;28;20050;-59
2023/01/08 08:52:13;;;;;;;0.43;0.40;;;5.00;99.90;;;;;;5023519;28;20050;-59
2023/01/08 08:54:41;;;;;;;2.25;0.30;;;5.00;99.90;;;;;;4996263;28;20046;-58
2023/01/08 08:57:08;;;;;;;3.50;0.40;;;5.10;99.90;;;;;;4988921;28;20502;-57
2023/01/08 08:59:36;;;;;;;4.50;1.27;;;5.10;99.90;;;;;;4988822;28;20042;-60
2023/01/08 09:02:04;;;;;;;6.03;0.70;;;5.10;99.90;;;;;;4990115;28;21757;-60
2023/01/08 09:04:33;;;;;;;7.78;1.00;;;5.10;99.90;;;;;;5001934;28;20053;-60
2023/01/08 09:07:00;;;;;;;4.72;1.42;;;5.20;99.90;;;;;;4984257;28;20062;-60
2023/01/08 09:09:28;;;;;;;9.60;1.00;;;5.20;99.90;;;;;;4988848;28;20042;-59
2023/01/08 09:11:56;;;;;;;0.40;0.30;;;5.20;99.90;;;;;;4989671;28;20057;-60
2023/01/08 09:14:24;;;;;;;2.97;0.55;;;5.30;99.90;;;;;;4991306;28;20053;-60
2023/01/08 09:16:51;;;;;;;1.55;0.60;;;5.30;99.90;;;;;;4987615;28;20051;-60
2023/01/08 09:19:19;;;;;;;3.13;0.60;;;5.30;99.90;;;;;;5002749;28;20478;-59
2023/01/08 09:21:47;;;;;;;4.97;0.60;;;5.30;99.90;;;;;;4989161;28;20050;-59
2023/01/08 09:24:14;;;;;;;3.20;0.40;;;5.40;99.90;;;;;;4994701;28;20568;-60
2023/01/08 09:26:42;;;;;;;2.45;0.43;;;5.30;99.90;;;;;;4987282;28;20154;-60
2023/01/08 09:29:09;;;;;;;1.90;0.43;;;5.40;99.90;;;;;;5002925;28;20053;-61
2023/01/08 09:31:37;;;;;;;2.83;0.50;;;5.40;99.90;;;;;;4986475;28;20050;-60
2023/01/08 09:34:05;;;;;;;6.45;0.85;;;5.40;99.90;;;;;;4993872;28;20065;-60
2023/01/08 09:36:32;;;;;;;6.70;0.65;;;5.50;99.90;;;;;;4985410;28;20593;-60
2023/01/08 09:39:00;;;;;;;6.05;0.47;;;5.60;99.90;;;;;;4986089;28;20046;-60
2023/01/08 09:41:32;;;;;;;3.72;0.40;;;5.60;99.90;;;;;;4986027;28;20054;-60
2023/01/08 09:44:03;;;;;;;5.15;0.95;;;5.50;99.90;;;;;;4987632;28;20458;-59
2023/01/08 09:46:31;;;;;;;5.35;0.95;;;5.60;99.90;;;;;;4987721;28;20485;-59
2023/01/08 09:49:03;;;;;;;5.10;0.30;;;5.60;99.90;;;;;;4989410;28;20474;-60
2023/01/08 09:51:34;;;;;;;5.07;0.40;;;5.60;99.90;;;;;;4990201;28;20049;-59
2023/01/08 09:54:03;;;;;;;4.07;0.40;;;5.60;99.90;;;;;;4988566;28;20065;-60
2023/01/08 09:56:33;;;;;;;2.80;0.50;;;5.60;99.90;;;;;;4988004;28;20069;-59
2023/01/08 09:59:03;;;;;;;2.83;0.70;;;5.70;99.90;;;;;;4989317;28;20061;-58
2023/01/08 10:01:34;;;;;;;;;;;5.70;99.90;;;;;;4987260;28;20039;-59
2023/01/08 10:04:23;;;;;;;8.05;0.75;;;5.70;99.90;;;;;;5020811;28;20365;-60
2023/01/08 10:07:10;;;;;;;7.68;1.13;;;5.80;99.90;;;;;;4990151;28;20363;-58
2023/01/08 10:09:39;;;;;;;5.18;0.57;;;5.80;99.90;;;;;;4982311;28;20047;-61
2023/01/08 10:12:11;;;;;;;6.60;0.73;;;5.80;99.90;;;;;;4989904;28;20057;-61
2023/01/08 10:14:46;;;;;;;9.13;0.88;;;5.90;99.90;;;;;;4993103;28;20051;-60
2023/01/08 10:17:14;;;;;;;5.05;0.70;;;5.90;99.90;;;;;;4990056;28;20061;-59
2023/01/08 10:19:44;;;;;;;5.20;1.27;;;5.90;99.90;;;;;;4989229;28;20039;-59
2023/01/08 10:22:15;;;;;;;3.20;0.63;;;6.00;99.90;;;;;;4988719;28;20058;-60
2023/01/08 10:24:43;;;;;;;13.38;1.48;;;6.00;99.90;;;;;;4989257;28;20054;-61
2023/01/08 10:27:19;;;;;;;7.10;1.20;;;6.00;99.90;;;;;;4989290;28;20061;-60
2023/01/08 10:29:49;;;;;;;6.00;0.90;;;6.10;99.90;;;;;;5006425;28;20061;-59
2023/01/08 10:32:25;;;;;;;8.85;1.00;;;6.10;99.90;;;;;;4988885;28;20050;-61
2023/01/08 10:34:55;;;;;;;8.85;0.70;;;6.10;99.90;;;;;;4989369;28;20045;-60
2023/01/08 10:37:35;;;;;;;26.05;1.52;;;6.20;99.90;;;;;;4989413;28;20038;-60
2023/01/08 10:40:31;;;;;;;7.70;1.30;;;6.20;99.90;;;;;;4989725;28;20043;-65
2023/01/08 10:43:16;;;;;;;6.32;0.70;;;6.20;99.90;;;;;;4989812;28;20383;-64
2023/01/08 10:46:01;;;;;;;9.15;1.63;;;6.30;99.90;;;;;;4990903;28;20054;-64
2023/01/08 10:48:38;;;;;;;14.85;1.27;;;6.30;99.90;;;;;;4988755;28;20061;-60
2023/01/08 10:51:22;;;;;;;9.18;0.70;;;6.30;99.90;;;;;;4984513;28;20483;-61
2023/01/08 10:53:51;;;;;;;8.52;0.98;;;6.40;99.90;;;;;;4987472;28;20047;-60
2023/01/08 10:56:25;;;;;;;3.75;0.93;;;6.40;99.90;;;;;;4992925;28;20054;-59
2023/01/08 10:58:53;;;;;;;8.32;1.00;;;6.40;99.90;;;;;;5006034;28;20414;-64
2023/01/08 11:01:27;;;;;;;19.38;1.45;;;6.50;99.90;;;;;;5012611;28;20049;-60
2023/01/08 11:04:01;;;;;;;5.07;0.88;;;6.50;99.90;;;;;;5009380;28;20046;-63
2023/01/08 11:06:31;;;;;;;11.52;1.52;;;6.60;99.90;;;;;;4991360;28;20050;-65
2023/01/08 11:09:02;;;;;;;6.47;1.67;;;6.60;99.90;;;;;;4990718;28;20057;-62
2023/01/08 11:11:35;;;;;;;9.20;1.23;;;6.70;99.90;;;;;;4993077;28;20043;-65
2023/01/08 11:14:14;;;;;;;8.45;2.15;;;6.70;99.90;;;;;;4995241;28;20038;-59
2023/01/08 11:16:42;;;;;;;12.10;1.98;;;6.70;99.90;;;;;;4992873;28;20648;-66
2023/01/08 11:19:23;;;;;;;9.40;1.25;;;6.70;99.90;;;;;;5007767;28;20054;-61
2023/01/08 11:22:04;;;;;;;17.48;1.98;;;6.70;99.90;;;;;;4990628;28;20054;-62
2023/01/08 11:24:35;;;;;;;8.45;1.52;;;6.70;99.90;;;;;;4991644;28;20054;-65
2023/01/08 11:27:11;;;;;;;7.95;1.65;;;6.70;99.90;;;;;;4992681;28;20058;-65
2023/01/08 11:29:56;;;;;;;18.33;2.22;;;6.70;99.90;;;;;;5011168;28;20058;-65
2023/01/08 11:32:47;;;;;;;10.52;1.30;;;6.60;99.90;;;;;;5004543;28;20066;-64
2023/01/08 11:35:24;;;;;;;15.35;1.95;;;6.60;99.90;;;;;;4988358;28;20509;-64
2023/01/08 11:38:00;;;;;;;10.32;2.22;;;6.60;99.90;;;;;;4993515;28;20053;-66
2023/01/08 11:40:49;;;;;;;9.30;1.10;;;6.50;99.90;;;;;;4992249;28;20039;-65
2023/01/08 11:43:32;;;;;;;13.02;1.17;;;6.50;99.90;;;;;;5033666;28;20061;-60
2023/01/08 11:46:32;;;;;;;10.02;1.67;;;6.60;99.90;;;;;;4992380;28;20054;-61
2023/01/08 11:49:05;;;;;;;7.32;1.80;;;6.60;99.90;;;;;;4991167;28;20051;-60
2023/01/08 11:52:17;;;;;;;11.27;1.42;;;6.70;99.90;;;;;;4978760;28;20047;-60
2023/01/08 11:55:00;;;;;;;8.32;0.93;;;6.70;99.90;;;;;;5006800;28;20057;-60
2023/01/08 11:57:43;;;;;;;11.00;1.23;;;6.70;99.90;;;;;;4989565;28;20058;-60
2023/01/08 12:00:29;;;;;;;7.05;1.27;;;6.70;99.90;;;;;;4991127;28;20053;-60
2023/01/08 12:03:27;;;;;;;5.65;1.02;;;6.70;99.90;;;;;;4990375;28;20057;-62
2023/01/08 12:06:15;;;;;;;11.38;1.33;;;6.70;99.90;;;;;;4987869;28;20113;-59
2023/01/08 12:09:03;;;;;;;7.30;1.20;;;6.70;99.90;;;;;;4990938;28;20054;-59
2023/01/08 12:11:39;;;;;;;3.42;1.08;;;6.70;99.90;;;;;;4990462;28;20565;-60
2023/01/08 12:14:16;;;;;;;9.32;1.70;;;6.70;99.90;;;;;;4993810;28;20042;-61
2023/01/08 12:17:08;;;;;;;10.20;1.73;;;6.70;99.90;;;;;;4991886;28;20055;-60
2023/01/08 12:19:55;;;;;;;5.22;1.27;;;6.60;99.90;;;;;;4991300;28;20055;-60
2023/01/08 12:22:31;;;;;;;4.45;0.57;;;6.60;99.90;;;;;;4990155;28;20046;-60
2023/01/08 12:25:21;;;;;;;5.47;1.55;;;6.70;99.90;;;;;;4988240;28;20046;-60
2023/01/08 12:27:56;;;;;;;5.32;0.82;;;6.70;99.90;;;;;;4992072;28;20077;-58
2023/01/08 12:30:38;;;;;;;3.60;0.40;;;6.70;99.90;;;;;;4984858;28;20046;-59
2023/01/08 12:33:27;;;;;;;1.88;1.23;;;6.70;99.90;;;;;;4978694;28;20046;-59
2023/01/08 12:35:57;;;;;;;3.40;0.60;;;6.80;99.90;;;;;;4975401;28;20039;-58
2023/01/08 12:38:31;;;;;;;2.20;0.45;;;6.80;99.90;;;;;;4977258;28;20080;-58
2023/01/08 12:41:05;;;;;;;2.33;0.40;;;5.80;99.90;;;;;;4974425;28;20054;-58
2023/01/08 12:43:40;;;;;;;3.05;0.50;;;6.80;99.90;;;;;;4974971;28;20046;-58
2023/01/08 12:46:12;;;;;;;0.65;0.28;;;6.80;99.90;;;;;;4975728;28;20042;-59
2023/01/08 12:48:40;;;;;;;1.75;0.40;;;6.80;99.90;;;;;;4996887;28;20057;-58
2023/01/08 12:51:42;;;;;;;1.58;0.20;;;6.80;99.90;;;;;;4979500;28;20053;-59
2023/01/08 12:54:30;;;;;;;1.15;0.25;;;6.90;99.90;;;;;;4985286;28;20046;-59
2023/01/08 12:57:01;;;;;;;0.15;0.15;;;6.90;99.90;;;;;;4983823;28;20046;-58
2023/01/08 12:59:38;;;;;;;1.63;0.73;;;6.90;99.90;;;;;;4979965;28;20050;-58
2023/01/08 13:02:36;;;;;;;3.65;0.50;;;6.90;99.90;;;;;;4972212;28;20410;-59
2023/01/08 13:05:15;;;;;;;3.03;0.98;;;7.00;99.90;;;;;;4974945;28;20472;-61
2023/01/08 13:07:54;;;;;;;2.60;1.35;;;7.00;99.90;;;;;;4986230;28;20038;-58
2023/01/08 13:10:25;;;;;;;3.05;0.45;;;7.00;99.90;;;;;;4974313;28;20038;-58
2023/01/08 13:12:54;;;;;;;0.63;0.20;;;7.00;99.90;;;;;;4981920;28;20053;-59
2023/01/08 13:15:27;;;;;;;1.45;0.20;;;7.10;99.90;;;;;;4988071;28;20118;-58
2023/01/08 13:17:59;;;;;;;3.00;0.32;;;7.30;99.90;;;;;;4979884;28;20045;-58
2023/01/08 13:20:29;;;;;;;0.40;0.30;;;7.30;99.90;;;;;;4973517;28;20058;-60